Time;durP1;ratioP1;P1;durP2;ratioP2;P2;SDS_P1;SDS_P2;PMS_P1;PMS_P2;Temp;Humidity;BMP_temperature;BMP_pressure;BME280_temperature;BME280_humidity;BME280_pressure;Samples;Min_cycle;Max_cycle;Signal;HPM_P1;HPM_P2
2022/08/17 00:00:47;;;;;;;22.35;10.55;;;20.20;99.90;;;;;;5049930;28;20067;-70
2022/08/17 00:03:16;;;;;;;21.38;8.88;;;20.20;99.90;;;;;;5050892;28;20034;-69
2022/08/17 00:05:48;;;;;;;18.65;9.70;;;20.10;99.90;;;;;;5032364;28;20034;-69
2022/08/17 00:08:17;;;;;;;15.70;9.77;;;20.10;99.90;;;;;;5051631;28;20036;-72
2022/08/17 00:10:44;;;;;;;16.67;8.80;;;20.10;99.90;;;;;;5032604;28;20029;-69
2022/08/17 00:13:14;;;;;;;17.77;10.43;;;20.10;99.90;;;;;;5051007;28;20029;-69
2022/08/17 00:15:40;;;;;;;14.40;9.73;;;19.90;99.90;;;;;;5051497;28;20392;-71
2022/08/17 00:18:06;;;;;;;22.92;9.55;;;20.00;99.90;;;;;;5050443;28;20029;-71
2022/08/17 00:20:32;;;;;;;27.17;11.23;;;20.00;99.90;;;;;;5050757;28;20040;-70
2022/08/17 00:23:06;;;;;;;18.55;10.15;;;20.00;99.90;;;;;;5051501;28;20133;-69
2022/08/17 00:25:32;;;;;;;16.73;9.73;;;20.00;99.90;;;;;;5050569;28;20029;-70
2022/08/17 00:27:57;;;;;;;21.52;10.35;;;20.00;99.90;;;;;;5051225;28;20029;-71
2022/08/17 00:30:23;;;;;;;27.83;10.85;;;20.10;99.90;;;;;;5050935;28;20071;-69
2022/08/17 00:32:49;;;;;;;23.50;10.15;;;20.00;99.90;;;;;;5032748;28;20040;-69
2022/08/17 00:35:18;;;;;;;17.83;9.90;;;20.00;99.90;;;;;;5051024;28;20057;-69
2022/08/17 00:37:44;;;;;;;18.90;10.52;;;20.00;99.90;;;;;;5032422;28;20032;-72
2022/08/17 00:40:12;;;;;;;22.73;9.55;;;20.00;99.90;;;;;;5050829;28;20076;-73
2022/08/17 00:42:38;;;;;;;28.73;10.52;;;19.90;99.90;;;;;;5050637;28;20030;-70
2022/08/17 00:45:07;;;;;;;17.48;9.88;;;19.90;99.90;;;;;;5050322;28;20024;-69
2022/08/17 00:47:32;;;;;;;17.65;8.98;;;19.90;99.90;;;;;;5047986;28;20028;-70
2022/08/17 00:49:58;;;;;;;18.55;10.27;;;19.90;99.90;;;;;;5050808;28;20030;-72
2022/08/17 00:52:31;;;;;;;22.05;10.23;;;20.00;99.90;;;;;;5050874;28;20068;-68
2022/08/17 00:54:57;;;;;;;17.30;10.60;;;19.90;99.90;;;;;;5050992;28;20036;-73
2022/08/17 00:57:28;;;;;;;19.80;10.30;;;19.80;99.90;;;;;;5031875;28;20021;-73
2022/08/17 01:00:07;;;;;;;17.25;10.18;;;19.80;99.90;;;;;;5033036;28;20086;-74
2022/08/17 01:02:38;;;;;;;17.77;9.38;;;19.80;99.90;;;;;;5050501;28;20091;-72
2022/08/17 01:05:05;;;;;;;19.63;9.93;;;19.80;99.90;;;;;;5050333;28;20032;-71
2022/08/17 01:07:31;;;;;;;25.85;11.23;;;19.70;99.90;;;;;;5050154;28;20026;-73
2022/08/17 01:10:00;;;;;;;25.27;11.35;;;19.70;99.90;;;;;;5050775;28;20051;-72
2022/08/17 01:12:29;;;;;;;22.70;11.38;;;19.70;99.90;;;;;;5049920;28;20027;-72
2022/08/17 01:14:54;;;;;;;21.70;11.60;;;19.70;99.90;;;;;;5053607;28;20026;-70
2022/08/17 01:17:20;;;;;;;19.85;11.55;;;19.70;99.90;;;;;;5051785;28;20029;-71
2022/08/17 01:19:46;;;;;;;23.50;12.52;;;19.70;99.90;;;;;;5054574;28;20059;-71
2022/08/17 01:22:11;;;;;;;21.27;11.02;;;19.60;99.90;;;;;;5053844;28;20034;-71
2022/08/17 01:24:41;;;;;;;21.13;10.98;;;19.70;99.90;;;;;;5054143;28;20028;-70
2022/08/17 01:27:08;;;;;;;20.20;11.15;;;19.70;99.90;;;;;;5053859;28;20085;-71
2022/08/17 01:29:36;;;;;;;20.20;10.73;;;19.70;99.90;;;;;;5052639;28;20022;-72
2022/08/17 01:32:04;;;;;;;19.38;10.55;;;19.60;99.90;;;;;;5053240;28;20526;-71
2022/08/17 01:34:30;;;;;;;29.00;12.10;;;19.60;99.90;;;;;;5053436;28;20029;-72
2022/08/17 01:36:56;;;;;;;20.02;11.55;;;19.50;99.90;;;;;;5053601;28;20048;-71
2022/08/17 01:39:33;;;;;;;25.10;11.52;;;19.60;99.90;;;;;;5054225;28;20021;-72
2022/08/17 01:42:14;;;;;;;20.50;11.18;;;19.50;99.90;;;;;;5053792;28;20038;-71
2022/08/17 01:44:40;;;;;;;22.50;11.50;;;19.50;99.90;;;;;;5052492;28;20026;-71
2022/08/17 01:47:05;;;;;;;23.25;11.27;;;19.50;99.90;;;;;;5053844;28;20031;-71
2022/08/17 01:49:32;;;;;;;20.88;10.65;;;19.50;99.90;;;;;;5034591;28;20044;-72
2022/08/17 01:52:05;;;;;;;25.15;11.20;;;19.50;99.90;;;;;;5050808;28;20025;-71
2022/08/17 01:54:31;;;;;;;21.80;11.98;;;19.50;99.90;;;;;;5052331;28;20060;-72
2022/08/17 01:56:57;;;;;;;27.65;11.35;;;19.40;99.90;;;;;;5053700;28;20022;-71
2022/08/17 01:59:22;;;;;;;18.67;11.32;;;19.30;99.90;;;;;;5053353;28;20155;-72
2022/08/17 02:01:48;;;;;;;27.40;12.57;;;19.30;99.90;;;;;;5034699;28;20041;-70
2022/08/17 02:04:13;;;;;;;22.52;11.32;;;19.20;99.90;;;;;;5052293;28;20033;-69
2022/08/17 02:06:42;;;;;;;24.35;12.15;;;19.30;99.90;;;;;;5052831;28;20057;-70
2022/08/17 02:09:09;;;;;;;23.13;12.32;;;19.30;99.90;;;;;;5053171;28;20647;-71
2022/08/17 02:11:37;;;;;;;26.58;14.15;;;19.30;99.90;;;;;;5052121;28;20045;-72
2022/08/17 02:14:03;;;;;;;26.88;13.32;;;19.30;99.90;;;;;;5043467;28;20168;-71
2022/08/17 02:16:31;;;;;;;28.30;13.48;;;19.20;99.90;;;;;;5052768;28;20024;-70
2022/08/17 02:18:57;;;;;;;26.45;14.15;;;19.30;99.90;;;;;;5051834;28;20135;-70
2022/08/17 02:21:22;;;;;;;26.40;14.05;;;19.30;99.90;;;;;;5053258;28;20075;-71
2022/08/17 02:23:48;;;;;;;54.40;16.10;;;19.30;99.90;;;;;;5052813;28;20549;-70
2022/08/17 02:26:14;;;;;;;25.35;15.85;;;19.20;99.90;;;;;;5052818;28;20025;-70
2022/08/17 02:28:40;;;;;;;28.83;16.70;;;19.30;99.90;;;;;;5052094;28;20025;-71
2022/08/17 02:31:08;;;;;;;33.65;16.48;;;19.30;99.90;;;;;;5035000;28;20025;-70
2022/08/17 02:33:35;;;;;;;34.92;18.35;;;19.20;99.90;;;;;;5052312;28;20017;-71
2022/08/17 02:36:02;;;;;;;30.98;16.15;;;19.40;99.90;;;;;;5052572;28;20029;-71
2022/08/17 02:38:30;;;;;;;32.17;15.07;;;19.30;99.90;;;;;;5034100;28;20048;-71
2022/08/17 02:40:57;;;;;;;31.10;16.63;;;19.30;99.90;;;;;;5052211;28;20042;-72
2022/08/17 02:43:23;;;;;;;37.83;17.73;;;19.30;99.90;;;;;;5051255;28;20029;-70
2022/08/17 02:45:49;;;;;;;29.70;15.57;;;19.30;99.90;;;;;;5033854;28;20052;-70
2022/08/17 02:48:14;;;;;;;40.65;16.58;;;19.30;99.90;;;;;;5051746;28;20025;-72
2022/08/17 02:50:40;;;;;;;35.63;17.38;;;19.30;99.90;;;;;;5052711;28;20036;-73
2022/08/17 02:53:06;;;;;;;37.40;16.88;;;19.30;99.90;;;;;;5051638;28;20032;-70
2022/08/17 02:55:37;;;;;;;39.35;16.05;;;19.30;99.90;;;;;;5051774;28;20033;-70
2022/08/17 02:58:03;;;;;;;29.67;16.15;;;19.30;99.90;;;;;;5052068;28;20045;-70
2022/08/17 03:00:35;;;;;;;40.22;17.08;;;19.30;99.90;;;;;;5051879;28;20477;-71
2022/08/17 03:03:04;;;;;;;51.33;19.13;;;19.20;99.90;;;;;;5051389;28;20074;-72
2022/08/17 03:05:32;;;;;;;35.20;17.75;;;19.30;99.90;;;;;;5050570;28;20041;-71
2022/08/17 03:07:58;;;;;;;39.40;18.13;;;19.30;99.90;;;;;;5034364;28;20025;-72
2022/08/17 03:10:24;;;;;;;40.53;17.83;;;19.30;99.90;;;;;;5052216;28;20021;-71
2022/08/17 03:12:51;;;;;;;31.30;16.42;;;19.30;99.90;;;;;;5052509;28;20033;-70
2022/08/17 03:15:25;;;;;;;40.92;17.75;;;19.30;99.90;;;;;;5050377;28;20043;-70
2022/08/17 03:17:53;;;;;;;41.60;18.67;;;19.30;99.90;;;;;;5052527;28;20055;-72
2022/08/17 03:20:19;;;;;;;44.70;20.15;;;19.30;99.90;;;;;;5052351;28;20098;-71
2022/08/17 03:22:48;;;;;;;41.22;17.33;;;19.30;99.90;;;;;;5051555;28;20032;-72
2022/08/17 03:25:18;;;;;;;41.60;17.88;;;19.30;99.90;;;;;;5051471;28;20921;-72
2022/08/17 03:27:43;;;;;;;39.70;17.33;;;19.20;99.90;;;;;;5050786;28;20089;-70
2022/08/17 03:30:11;;;;;;;31.45;17.05;;;19.30;99.90;;;;;;5051969;28;20029;-71
2022/08/17 03:32:39;;;;;;;43.10;17.67;;;19.20;99.90;;;;;;5033723;28;20055;-70
2022/08/17 03:35:05;;;;;;;38.17;16.85;;;19.20;99.90;;;;;;5051892;28;20048;-71
2022/08/17 03:37:31;;;;;;;37.10;15.18;;;19.20;99.90;;;;;;5050108;28;20040;-71
2022/08/17 03:39:57;;;;;;;38.22;16.67;;;19.20;99.90;;;;;;5051872;28;20024;-72
2022/08/17 03:42:26;;;;;;;34.97;16.15;;;19.20;99.90;;;;;;5051842;28;21328;-72
2022/08/17 03:44:56;;;;;;;36.42;17.27;;;19.20;99.90;;;;;;5051285;28;20115;-71
2022/08/17 03:58:22;;;;;;;28.15;15.32;;;19.10;99.90;;;;;;5051823;28;20091;-70
2022/08/17 04:00:49;;;;;;;40.35;16.77;;;19.10;99.90;;;;;;5051372;28;20029;-71
2022/08/17 04:03:15;;;;;;;32.13;15.60;;;19.10;99.90;;;;;;5051302;28;20066;-70
2022/08/17 04:05:41;;;;;;;30.67;15.68;;;19.10;99.90;;;;;;5050563;28;20091;-71
2022/08/17 04:08:07;;;;;;;27.25;14.88;;;19.20;99.90;;;;;;5051103;28;20037;-69
2022/08/17 04:10:33;;;;;;;33.67;16.10;;;19.10;99.90;;;;;;5050845;28;20021;-70
2022/08/17 04:13:00;;;;;;;38.00;17.50;;;19.10;99.90;;;;;;5050866;28;20040;-71
2022/08/17 04:15:26;;;;;;;35.10;15.45;;;19.10;99.90;;;;;;5050691;28;20030;-71
2022/08/17 04:17:53;;;;;;;31.67;15.25;;;19.00;99.90;;;;;;5051454;28;20082;-71
2022/08/17 04:20:21;;;;;;;30.83;15.68;;;19.00;99.90;;;;;;5050326;28;20037;-72
2022/08/17 04:23:05;;;;;;;39.75;15.85;;;19.10;99.90;;;;;;5051109;28;20040;-71
2022/08/17 04:25:33;;;;;;;34.83;15.75;;;19.00;99.90;;;;;;5051044;28;20032;-71
2022/08/17 04:27:59;;;;;;;34.55;14.95;;;19.00;99.90;;;;;;5050080;28;20026;-71
2022/08/17 04:30:28;;;;;;;33.53;15.65;;;19.00;99.90;;;;;;5033279;28;20034;-70
2022/08/17 04:33:01;;;;;;;41.33;16.23;;;19.00;99.90;;;;;;5050179;28;20053;-70
2022/08/17 04:35:30;;;;;;;31.70;16.15;;;19.00;99.90;;;;;;5049502;28;20049;-70
2022/08/17 04:37:57;;;;;;;31.40;15.45;;;19.00;99.90;;;;;;5048606;28;20041;-71
2022/08/17 04:43:18;;;;;;;25.67;14.95;;;18.90;99.90;;;;;;5050136;28;20094;-69
2022/08/17 04:45:50;;;;;;;31.15;14.43;;;18.90;99.90;;;;;;5050629;28;20039;-71
2022/08/17 04:48:16;;;;;;;42.13;17.15;;;18.90;99.90;;;;;;5053558;28;20040;-70
2022/08/17 04:50:45;;;;;;;33.50;15.55;;;18.90;99.90;;;;;;5054581;28;20017;-70
2022/08/17 04:53:11;;;;;;;25.73;15.63;;;18.90;99.90;;;;;;5052733;28;20025;-72
2022/08/17 04:55:37;;;;;;;33.25;15.48;;;18.80;99.90;;;;;;5054178;28;20040;-69
2022/08/17 04:58:04;;;;;;;30.83;16.30;;;18.90;99.90;;;;;;5054800;28;20028;-69
2022/08/17 05:00:29;;;;;;;27.83;15.13;;;18.80;99.90;;;;;;5050481;28;20048;-71
2022/08/17 05:02:55;;;;;;;29.27;14.45;;;18.80;99.90;;;;;;5054132;28;20025;-70
2022/08/17 05:05:24;;;;;;;27.67;12.95;;;18.80;99.90;;;;;;5054087;28;20104;-70
2022/08/17 05:07:53;;;;;;;23.95;13.75;;;18.80;99.90;;;;;;5054762;28;20018;-70
2022/08/17 05:10:20;;;;;;;25.63;14.63;;;18.70;99.90;;;;;;5054186;28;20022;-69
2022/08/17 05:12:46;;;;;;;28.60;13.23;;;18.80;99.90;;;;;;5053547;28;20036;-70
2022/08/17 05:15:14;;;;;;;26.75;14.25;;;18.70;99.90;;;;;;5054232;28;20032;-71
2022/08/17 05:17:41;;;;;;;29.17;15.05;;;18.70;99.90;;;;;;5052944;28;20092;-71
2022/08/17 05:20:07;;;;;;;30.58;14.18;;;18.70;99.90;;;;;;5053766;28;20036;-70
2022/08/17 05:22:33;;;;;;;27.83;14.93;;;18.80;99.90;;;;;;5051740;28;20030;-72
2022/08/17 05:25:00;;;;;;;34.00;15.30;;;18.70;99.90;;;;;;5035563;28;20088;-74
2022/08/17 05:27:25;;;;;;;24.02;14.45;;;18.80;99.90;;;;;;5052015;28;20037;-70
2022/08/17 05:29:51;;;;;;;34.58;15.60;;;18.70;99.90;;;;;;5052889;28;20040;-72
2022/08/17 05:32:21;;;;;;;35.20;15.93;;;18.80;99.90;;;;;;5035077;28;21933;-73
2022/08/17 05:34:47;;;;;;;26.77;15.02;;;18.80;99.90;;;;;;5053660;28;20032;-72
2022/08/17 05:37:12;;;;;;;33.40;15.70;;;18.80;99.90;;;;;;5052926;28;20067;-72
2022/08/17 05:39:38;;;;;;;33.85;16.98;;;18.80;99.90;;;;;;5050838;28;20040;-70
2022/08/17 05:42:04;;;;;;;36.50;15.50;;;18.90;99.90;;;;;;5053755;28;20063;-70
2022/08/17 05:44:29;;;;;;;34.30;16.10;;;18.90;99.90;;;;;;5053446;28;20093;-70
2022/08/17 05:46:58;;;;;;;30.63;16.83;;;19.00;99.90;;;;;;5053523;28;20040;-70
2022/08/17 05:49:28;;;;;;;38.05;16.60;;;19.00;99.90;;;;;;5052396;28;20036;-73
2022/08/17 05:52:16;;;;;;;33.15;16.70;;;18.90;99.90;;;;;;5051837;28;20037;-71
2022/08/17 05:55:10;;;;;;;43.25;18.50;;;19.00;99.90;;;;;;5053448;28;20025;-71
2022/08/17 05:58:07;;;;;;;29.17;15.80;;;19.00;99.90;;;;;;5053387;28;20140;-69
2022/08/17 06:00:47;;;;;;;29.45;15.20;;;18.90;99.90;;;;;;5028739;28;20107;-70
2022/08/17 06:03:41;;;;;;;32.55;15.75;;;18.90;99.90;;;;;;5053524;28;20981;-71
2022/08/17 06:06:30;;;;;;;26.67;16.20;;;18.90;99.90;;;;;;5052339;28;20041;-71
2022/08/17 06:09:10;;;;;;;37.80;16.52;;;19.00;99.90;;;;;;5051171;28;20393;-71
2022/08/17 06:11:44;;;;;;;30.33;16.15;;;19.00;99.90;;;;;;5050428;28;20057;-69
2022/08/17 06:14:19;;;;;;;37.88;16.42;;;19.00;99.90;;;;;;5050496;28;20021;-73
2022/08/17 06:16:50;;;;;;;29.67;16.85;;;19.00;99.90;;;;;;5053222;28;20017;-73
2022/08/17 06:19:48;;;;;;;34.38;16.38;;;19.10;99.90;;;;;;5033651;28;20048;-71
2022/08/17 06:22:18;;;;;;;31.48;16.00;;;19.10;99.90;;;;;;5046004;28;20045;-71
2022/08/17 06:25:01;;;;;;;32.42;15.70;;;19.10;99.90;;;;;;5052550;28;20084;-71
2022/08/17 06:27:38;;;;;;;31.25;16.33;;;19.10;99.90;;;;;;5053550;28;20052;-71
2022/08/17 06:30:26;;;;;;;33.22;16.75;;;19.20;99.90;;;;;;5052383;28;20021;-73
2022/08/17 06:32:58;;;;;;;34.90;16.02;;;19.20;99.90;;;;;;5050834;28;20123;-72
2022/08/17 06:35:32;;;;;;;30.23;15.07;;;19.20;99.90;;;;;;5052210;28;20018;-72
2022/08/17 06:38:17;;;;;;;36.75;15.35;;;19.20;99.90;;;;;;5034800;28;20083;-70
2022/08/17 06:41:18;;;;;;;28.05;14.98;;;19.30;99.90;;;;;;5051134;28;20037;-70
2022/08/17 06:44:01;;;;;;;28.52;14.43;;;19.30;99.90;;;;;;4989603;28;20550;-71
2022/08/17 06:46:42;;;;;;;25.45;13.80;;;19.30;99.90;;;;;;5046400;28;20037;-72
2022/08/17 06:49:31;;;;;;;25.55;13.18;;;19.50;99.90;;;;;;5048034;28;20036;-70
2022/08/17 06:52:06;;;;;;;28.42;15.88;;;19.50;99.90;;;;;;5049156;28;20040;-74
2022/08/17 06:54:59;;;;;;;32.55;15.23;;;19.60;99.90;;;;;;5050314;28;20400;-70
2022/08/17 06:57:30;;;;;;;31.95;15.18;;;19.70;99.90;;;;;;5049088;28;20025;-71
2022/08/17 07:00:07;;;;;;;31.40;15.48;;;19.80;99.90;;;;;;5049188;28;20080;-73
2022/08/17 07:02:52;;;;;;;30.63;15.95;;;19.90;99.90;;;;;;5049304;28;20032;-71
2022/08/17 07:05:39;;;;;;;32.35;15.73;;;19.90;99.90;;;;;;5051237;28;20056;-71
2022/08/17 07:08:10;;;;;;;35.50;15.52;;;20.00;99.90;;;;;;5040838;28;20087;-72
2022/08/17 07:10:49;;;;;;;32.72;14.93;;;20.20;99.90;;;;;;5051570;28;20013;-70
2022/08/17 07:13:24;;;;;;;23.30;13.55;;;20.20;99.90;;;;;;5050994;28;20078;-69
2022/08/17 07:15:56;;;;;;;30.92;14.05;;;20.30;99.90;;;;;;5052088;28;20116;-72
2022/08/17 07:18:26;;;;;;;26.38;12.13;;;20.40;99.90;;;;;;5031341;28;20018;-71
2022/08/17 07:20:57;;;;;;;25.20;13.65;;;20.50;99.90;;;;;;5052023;28;20040;-71
2022/08/17 07:23:38;;;;;;;26.23;13.07;;;20.50;99.90;;;;;;5050791;28;20028;-68
2022/08/17 07:26:07;;;;;;;24.70;13.68;;;20.60;99.90;;;;;;5050928;28;20034;-68
2022/08/17 07:28:34;;;;;;;35.30;14.60;;;20.70;99.90;;;;;;5050985;28;20052;-70
2022/08/17 07:31:01;;;;;;;19.92;12.23;;;20.80;99.90;;;;;;5051313;28;20036;-69
2022/08/17 07:33:30;;;;;;;25.02;12.18;;;20.90;99.90;;;;;;5032930;28;20035;-69
2022/08/17 07:35:58;;;;;;;27.00;12.60;;;21.00;99.90;;;;;;5048125;28;20024;-69
2022/08/17 07:38:27;;;;;;;30.80;14.07;;;21.10;99.90;;;;;;5033712;28;20028;-68
2022/08/17 07:41:02;;;;;;;20.05;12.40;;;21.10;99.90;;;;;;5051507;28;20044;-71
2022/08/17 07:43:36;;;;;;;25.20;13.23;;;21.20;99.90;;;;;;5051544;28;20030;-69
2022/08/17 07:49:08;;;;;;;26.75;13.05;;;21.40;99.90;;;;;;5050475;28;20044;-70
2022/08/17 07:51:42;;;;;;;23.70;11.20;;;21.50;99.90;;;;;;5050732;28;20029;-69
2022/08/17 07:54:14;;;;;;;23.25;11.77;;;21.50;99.90;;;;;;5050466;28;20025;-69
2022/08/17 07:56:42;;;;;;;18.02;11.77;;;21.50;99.90;;;;;;5051177;28;20033;-70
2022/08/17 07:59:10;;;;;;;19.17;11.48;;;21.60;99.90;;;;;;5046390;28;20036;-70
2022/08/17 08:01:36;;;;;;;17.42;10.13;;;21.70;99.90;;;;;;5030347;28;20486;-68
2022/08/17 08:04:26;;;;;;;17.05;9.40;;;21.80;99.90;;;;;;5047348;28;20037;-68
2022/08/17 08:06:58;;;;;;;22.55;9.95;;;21.90;99.90;;;;;;5049970;28;20033;-70
2022/08/17 08:09:33;;;;;;;14.48;9.23;;;22.00;99.90;;;;;;5030370;28;20028;-69
2022/08/17 08:12:23;;;;;;;22.05;11.18;;;22.10;99.90;;;;;;5047583;28;20052;-69
2022/08/17 08:15:13;;;;;;;18.92;9.93;;;22.30;99.90;;;;;;5048729;28;20029;-70
2022/08/17 08:18:19;;;;;;;19.10;10.00;;;22.30;99.90;;;;;;5049814;28;20033;-70
2022/08/17 08:20:54;;;;;;;18.25;11.00;;;22.40;99.90;;;;;;5045699;28;20707;-72
2022/08/17 08:23:32;;;;;;;19.08;11.00;;;22.50;99.90;;;;;;5049966;28;20029;-70
2022/08/17 08:26:24;;;;;;;20.38;9.80;;;22.60;99.90;;;;;;5053590;28;20116;-70
2022/08/17 08:29:32;;;;;;;20.75;8.68;;;22.70;99.90;;;;;;5053038;28;20041;-70
2022/08/17 08:32:19;;;;;;;17.38;8.90;;;22.90;99.90;;;;;;5053783;28;20040;-72
2022/08/17 08:35:05;;;;;;;18.80;9.43;;;23.10;99.90;;;;;;5036482;28;20030;-68
2022/08/17 08:37:50;;;;;;;11.05;7.63;;;23.30;99.90;;;;;;5054346;28;20122;-69
2022/08/17 08:40:31;;;;;;;13.50;8.40;;;23.60;99.90;;;;;;5054093;28;20072;-68
2022/08/17 08:43:04;;;;;;;13.13;8.10;;;23.80;99.90;;;;;;5054401;28;20572;-69
2022/08/17 08:45:50;;;;;;;12.60;7.33;;;24.00;99.90;;;;;;5052895;28;20034;-69
2022/08/17 08:48:43;;;;;;;15.20;7.53;;;24.20;99.90;;;;;;5053255;28;20033;-69
2022/08/17 08:51:29;;;;;;;13.98;6.78;;;24.40;99.90;;;;;;5051747;28;20041;-70
2022/08/17 08:54:09;;;;;;;11.73;7.22;;;24.70;99.90;;;;;;5034790;28;20428;-70
2022/08/17 08:56:41;;;;;;;10.75;6.30;;;24.80;99.90;;;;;;5054627;28;20043;-68
2022/08/17 08:59:28;;;;;;;10.07;6.55;;;24.90;99.90;;;;;;5053264;28;20063;-69
2022/08/17 09:02:15;;;;;;;10.93;6.35;;;25.00;99.90;;;;;;5054793;28;20033;-71
2022/08/17 09:04:44;;;;;;;10.85;5.07;;;25.10;99.90;;;;;;5053325;28;20029;-69
2022/08/17 09:07:22;;;;;;;17.10;6.13;;;25.20;99.90;;;;;;5053645;28;20046;-70
2022/08/17 09:10:12;;;;;;;10.20;5.95;;;25.30;99.90;;;;;;5051759;28;20037;-69
2022/08/17 09:12:55;;;;;;;14.18;6.80;;;25.40;99.90;;;;;;5053579;28;20026;-71
2022/08/17 09:15:48;;;;;;;11.15;6.00;;;25.50;99.90;;;;;;5051522;28;20033;-70
2022/08/17 09:18:29;;;;;;;9.13;5.10;;;25.70;99.90;;;;;;5050524;28;20045;-69
2022/08/17 09:21:04;;;;;;;8.45;5.50;;;25.80;99.90;;;;;;5054254;28;20102;-70
2022/08/17 09:23:43;;;;;;;9.63;6.15;;;25.90;99.90;;;;;;5053347;28;20056;-72
2022/08/17 09:26:45;;;;;;;16.77;6.60;;;26.10;99.90;;;;;;5053789;28;20033;-69
2022/08/17 09:29:14;;;;;;;11.07;6.22;;;26.10;99.90;;;;;;5033826;28;20046;-68
2022/08/17 09:31:57;;;;;;;12.20;7.03;;;26.10;99.90;;;;;;5052950;28;20117;-69
2022/08/17 09:34:41;;;;;;;13.02;6.10;;;26.30;99.90;;;;;;5051667;28;20128;-71
2022/08/17 09:37:21;;;;;;;14.25;6.22;;;26.40;99.90;;;;;;5049852;28;20543;-70
2022/08/17 09:40:16;;;;;;;9.73;5.75;;;26.40;99.90;;;;;;5052853;28;20094;-70
2022/08/17 09:43:05;;;;;;;11.82;6.15;;;26.40;99.90;;;;;;5053168;28;20052;-70
2022/08/17 09:45:41;;;;;;;10.10;5.60;;;26.40;99.90;;;;;;5052566;28;20025;-71
2022/08/17 09:48:29;;;;;;;8.95;5.88;;;26.40;99.90;;;;;;5052512;28;20021;-71
2022/08/17 09:51:08;;;;;;;11.73;6.65;;;26.40;99.90;;;;;;5034210;28;20021;-71
2022/08/17 09:53:36;;;;;;;8.25;4.65;;;26.50;99.90;;;;;;5041386;28;20037;-71
2022/08/17 09:56:22;;;;;;;11.50;5.72;;;26.50;99.90;;;;;;5045063;28;20122;-69
2022/08/17 09:59:16;;;;;;;8.00;5.20;;;26.60;99.90;;;;;;5047059;28;20049;-68
2022/08/17 10:02:00;;;;;;;6.60;5.00;;;26.70;99.90;;;;;;5051074;28;20048;-70
2022/08/17 10:05:01;;;;;;;10.43;5.90;;;26.80;99.90;;;;;;5052646;28;20043;-69
2022/08/17 10:07:59;;;;;;;14.52;5.55;;;27.00;99.90;;;;;;5010794;28;20049;-70
2022/08/17 10:10:31;;;;;;;10.25;5.15;;;27.20;99.90;;;;;;5033283;28;20029;-71
2022/08/17 10:13:00;;;;;;;7.85;4.57;;;27.40;99.90;;;;;;5028097;28;20030;-69
2022/08/17 10:16:17;;;;;;;7.82;4.63;;;27.60;99.90;;;;;;5032544;28;20029;-70
2022/08/17 10:19:01;;;;;;;8.90;5.32;;;27.70;99.90;;;;;;4998266;28;20148;-69
2022/08/17 10:27:38;;;;;;;5.68;3.83;;;27.90;99.90;;;;;;5032159;28;20059;-71
2022/08/17 10:30:05;;;;;;;6.22;3.67;;;27.90;99.90;;;;;;5031053;28;20064;-71
2022/08/17 10:32:54;;;;;;;4.18;3.17;;;28.00;99.90;;;;;;5032053;28;20030;-71
2022/08/17 10:35:32;;;;;;;4.57;2.65;;;28.20;99.90;;;;;;5028210;28;20411;-71
2022/08/17 10:38:11;;;;;;;6.53;3.63;;;28.50;99.90;;;;;;5030999;28;20124;-73
2022/08/17 10:40:56;;;;;;;4.00;2.15;;;28.70;99.90;;;;;;5026454;28;20040;-71
2022/08/17 10:43:37;;;;;;;4.70;2.83;;;28.80;99.90;;;;;;5026042;28;20632;-69
2022/08/17 10:46:11;;;;;;;3.80;2.65;;;28.80;99.90;;;;;;5031192;28;20033;-68
2022/08/17 10:48:38;;;;;;;4.05;2.88;;;28.90;99.90;;;;;;5029491;28;20132;-69
2022/08/17 10:51:09;;;;;;;5.43;3.72;;;28.90;99.90;;;;;;5018808;28;20037;-71
2022/08/17 10:53:34;;;;;;;7.13;3.10;;;29.00;99.90;;;;;;5030725;28;20044;-69
2022/08/17 10:56:12;;;;;;;3.97;2.58;;;29.10;99.90;;;;;;5032311;28;20029;-71
2022/08/17 10:58:59;;;;;;;6.05;2.78;;;29.30;99.90;;;;;;5031450;28;20037;-70
2022/08/17 11:01:45;;;;;;;3.58;2.33;;;29.50;99.90;;;;;;5031938;28;20386;-71
2022/08/17 11:04:17;;;;;;;4.38;2.67;;;29.80;99.90;;;;;;5030421;28;20033;-69
2022/08/17 11:07:16;;;;;;;7.53;2.60;;;30.00;99.90;;;;;;5046145;28;20051;-71
2022/08/17 11:10:14;;;;;;;5.20;2.58;;;30.20;99.90;;;;;;5051223;28;20046;-70
2022/08/17 11:12:48;;;;;;;4.93;2.67;;;30.30;99.90;;;;;;5049573;28;20040;-70
2022/08/17 11:15:45;;;;;;;4.85;3.22;;;30.40;99.90;;;;;;5049860;28;20035;-70
2022/08/17 11:18:32;;;;;;;5.65;2.97;;;30.50;99.90;;;;;;5050318;28;20028;-71
2022/08/17 11:21:13;;;;;;;4.88;2.58;;;30.60;99.90;;;;;;5051289;28;20052;-72
2022/08/17 11:24:11;;;;;;;3.33;2.53;;;30.50;99.90;;;;;;5050232;28;20033;-70
2022/08/17 11:26:45;;;;;;;4.20;2.63;;;30.40;99.90;;;;;;5050781;28;20047;-70
2022/08/17 11:29:20;;;;;;;;;;;30.30;99.90;;;;;;5048173;28;20085;-70
2022/08/17 11:32:12;;;;;;;7.07;2.75;;;30.20;99.90;;;;;;5050053;28;19909;-70
2022/08/17 11:34:40;;;;;;;4.45;2.65;;;30.20;99.90;;;;;;5050017;28;20057;-71
2022/08/17 11:37:18;;;;;;;4.38;2.92;;;30.20;99.90;;;;;;5046579;28;20025;-70
2022/08/17 11:40:04;;;;;;;4.43;2.63;;;30.20;99.90;;;;;;5043580;28;20040;-71
2022/08/17 11:42:30;;;;;;;5.43;3.15;;;30.10;99.90;;;;;;5048144;28;20059;-71
2022/08/17 11:45:00;;;;;;;4.63;3.47;;;30.10;99.90;;;;;;5050418;28;20035;-71
2022/08/17 11:53:36;;;;;;;6.57;3.33;;;29.90;99.90;;;;;;5042813;28;20052;-70
2022/08/17 11:56:08;;;;;;;4.60;3.00;;;29.80;99.90;;;;;;5049180;28;20036;-71
2022/08/17 11:58:40;;;;;;;4.53;2.60;;;29.90;99.90;;;;;;5046735;28;20021;-71
2022/08/17 12:01:11;;;;;;;12.38;3.55;;;29.90;99.90;;;;;;5049951;28;20068;-70
2022/08/17 12:03:37;;;;;;;5.97;2.20;;;29.90;99.90;;;;;;5046254;28;20029;-72
2022/08/17 12:06:12;;;;;;;8.88;2.05;;;29.50;99.90;;;;;;5049135;28;20422;-70
2022/08/17 12:08:47;;;;;;;5.35;1.90;;;29.20;99.90;;;;;;5048273;28;20033;-71
2022/08/17 12:11:20;;;;;;;4.28;2.55;;;28.80;99.90;;;;;;5050400;28;20424;-72
2022/08/17 12:13:50;;;;;;;3.37;2.00;;;28.30;99.90;;;;;;5049590;28;20096;-70
2022/08/17 12:16:18;;;;;;;11.15;2.40;;;28.20;99.90;;;;;;5049672;28;21415;-71
2022/08/17 12:18:57;;;;;;;3.88;2.25;;;28.00;99.90;;;;;;5047653;28;20067;-70
2022/08/17 12:21:53;;;;;;;4.57;2.30;;;27.90;99.90;;;;;;5049192;28;20037;-71
2022/08/17 12:24:35;;;;;;;3.60;2.30;;;27.80;99.90;;;;;;5046147;28;20083;-71
2022/08/17 12:27:04;;;;;;;5.50;2.67;;;27.70;99.90;;;;;;5046089;28;20036;-72
2022/08/17 12:29:31;;;;;;;3.92;2.17;;;27.70;99.90;;;;;;5049161;28;20075;-72
2022/08/17 12:31:59;;;;;;;5.28;2.20;;;27.80;99.90;;;;;;5048228;28;20025;-73
2022/08/17 12:34:35;;;;;;;11.70;2.20;;;27.80;99.90;;;;;;5049116;28;20025;-71
2022/08/17 12:37:26;;;;;;;2.72;1.80;;;27.80;99.90;;;;;;5049354;28;20032;-72
2022/08/17 12:39:56;;;;;;;2.55;1.67;;;27.80;99.90;;;;;;5049444;28;20079;-71
2022/08/17 12:42:26;;;;;;;2.83;1.73;;;27.90;99.90;;;;;;5049591;28;20057;-70
2022/08/17 12:44:51;;;;;;;4.10;2.40;;;28.00;99.90;;;;;;5050742;28;20037;-71
2022/08/17 12:47:18;;;;;;;2.72;2.10;;;28.20;99.90;;;;;;5050261;28;20381;-70
2022/08/17 12:49:47;;;;;;;3.60;2.05;;;28.30;99.90;;;;;;5047051;28;20027;-73
2022/08/17 12:52:15;;;;;;;3.08;2.17;;;28.50;99.90;;;;;;5043459;28;20084;-68
2022/08/17 12:55:05;;;;;;;4.88;2.80;;;28.60;99.90;;;;;;5048605;28;20081;-71
2022/08/17 12:57:37;;;;;;;2.97;2.45;;;28.70;99.90;;;;;;5041470;28;20409;-70
2022/08/17 13:00:17;;;;;;;4.13;2.17;;;28.90;99.90;;;;;;5050194;28;20033;-70
2022/08/17 13:02:52;;;;;;;3.53;1.85;;;29.00;99.90;;;;;;5049434;28;20034;-68
2022/08/17 13:05:26;;;;;;;4.57;2.30;;;29.20;99.90;;;;;;5048646;28;20049;-68
2022/08/17 13:07:53;;;;;;;4.88;2.72;;;29.30;99.90;;;;;;5050556;28;20039;-68
2022/08/17 13:10:21;;;;;;;2.53;1.98;;;29.60;99.90;;;;;;5053695;28;20429;-68
2022/08/17 13:12:49;;;;;;;12.57;2.53;;;29.80;99.90;;;;;;5053756;28;20040;-68
2022/08/17 13:15:29;;;;;;;4.28;2.75;;;30.00;99.90;;;;;;5053515;28;20126;-68
2022/08/17 13:18:27;;;;;;;14.68;2.47;;;30.20;99.90;;;;;;5054109;28;20534;-70
2022/08/17 13:21:00;;;;;;;4.82;2.15;;;30.40;99.90;;;;;;5053225;28;20024;-68
2022/08/17 13:23:28;;;;;;;5.18;2.58;;;30.60;99.90;;;;;;5052398;28;20025;-70
2022/08/17 13:26:26;;;;;;;3.92;2.42;;;31.00;99.90;;;;;;5051510;28;20033;-69
2022/08/17 13:28:53;;;;;;;4.05;2.38;;;31.30;99.90;;;;;;5051706;28;20051;-67
2022/08/17 13:31:39;;;;;;;5.97;2.50;;;31.50;99.90;;;;;;5049748;28;20021;-69
2022/08/17 13:34:22;;;;;;;3.75;2.08;;;31.60;99.90;;;;;;5050668;28;20029;-71
2022/08/17 13:36:49;;;;;;;3.60;2.13;;;31.50;99.90;;;;;;5052855;28;20550;-68